Accueil
METAR-TAF:

METAR-TAF

Aéroports :

Aéroport de Cabinda

Cabinda, Angola

latitude: 5-35-50S, longitude: 12-11-17E, altitude: 20 m

Observation

Le bulletin a été fait il y a 1 heure et 13 minutes, à 17:00 UTC
Vent 6 kt de sud/sud-ouest
Température 28°C
Humidité 79%
Pression 1009 hPa
Visibilité 10 km ou plus
Quelques nuages à une hauteur de 2000 ft

METAR: FNCA 241700Z 21006KT 9999 FEW020 28/24 Q1009

Heure: 19:13 (18:13 UTC)

Prévision

Le bulletin a été fait il y a 7 heures et 28 minutes, à 10:45 UTC
Prévision valable du 24 à 12 UTC au 24 à 24 UTC
Vent 10 kt de ouest/sud-ouest
Visibilité 10 km ou plus
Quelques nuages à une hauteur de 1800 ft
Nuages fragmentés à une hauteur de 3000 ft
Evoluant progressivement
du 24 à 22 UTC au 24 à 24 UTC
Vent 3 kt de direction variable
Visibilité: 8000 m
Nuages épars à une hauteur de 1500 ft

TAF: FNCA 241045Z 2412/2424 24010KT 9999 FEW018 BKN030 BECMG 2422/2424 VRB03KT 8000 SCT015

Observations et prévisions météorologiques de plus de 4000 aéroports (messages METAR et TAF).

Les stations disponibles sont représentées par des disques jaunes et rouges sur la carte.

Passer la souris dessus pour voir le nom de la station.

Cliquer dessus pour voir les observations et prévisions météorologiques.

Pour changer de carte: cliquez sur les boutons verts avec une croix noire pour zoomer, sur le bouton vert avec un tiret pour effectuer un zoom arrière, ou sur les flèches vertes pour les cartes adjacentes.


METAR-TAF: